createdAt,value
2022-09-21T00:00:35.803Z,45.33
2022-09-21T00:10:51.428Z,45.77
2022-09-21T00:15:57.468Z,44.43
2022-09-21T00:21:04.933Z,43.95
2022-09-21T00:26:16.440Z,43.67
2022-09-21T00:31:22.177Z,43.70
2022-09-21T00:36:29.865Z,43.03
2022-09-21T00:41:35.835Z,44.00
2022-09-21T00:46:41.787Z,44.17
2022-09-21T00:51:48.398Z,43.85
2022-09-21T00:56:54.353Z,44.23
2022-09-21T01:02:01.974Z,43.77
2022-09-21T01:07:12.747Z,44.27
2022-09-21T01:12:37.482Z,44.13
2022-09-21T01:18:09.813Z,44.43
2022-09-21T01:23:27.357Z,45.10
2022-09-21T01:28:56.799Z,44.83
2022-09-21T01:34:05.733Z,45.00
2022-09-21T01:39:14.420Z,45.17
2022-09-21T01:44:22.677Z,44.10
2022-09-21T01:49:36.483Z,44.70
2022-09-21T01:54:50.440Z,44.97
2022-09-21T02:00:01.096Z,44.57
2022-09-21T02:05:07.556Z,44.83
2022-09-21T02:10:17.558Z,44.80
2022-09-21T02:15:25.920Z,44.57
2022-09-21T02:20:36.655Z,44.37
2022-09-21T02:25:52.478Z,44.73
2022-09-21T02:31:10.059Z,44.93
2022-09-21T02:36:21.074Z,44.50
2022-09-21T02:41:32.848Z,44.70
2022-09-21T02:46:54.251Z,44.50
2022-09-21T02:52:02.796Z,45.03
2022-09-21T02:57:09.266Z,44.83
2022-09-21T03:02:15.052Z,45.28
2022-09-21T03:07:20.991Z,46.95
2022-09-21T03:12:27.269Z,47.57
2022-09-21T03:17:32.462Z,48.20
2022-09-21T03:22:37.828Z,46.67
2022-09-21T03:27:42.918Z,45.47
2022-09-21T03:32:51.441Z,44.33
2022-09-21T03:37:56.331Z,45.70
2022-09-21T03:43:01.648Z,45.13
2022-09-21T03:48:07.025Z,45.10
2022-09-21T03:53:13.159Z,44.60
2022-09-21T03:58:18.927Z,44.97
2022-09-21T04:03:24.722Z,45.33
2022-09-21T04:08:32.898Z,44.90
2022-09-21T04:13:38.258Z,45.23
2022-09-21T04:18:44.039Z,44.67
2022-09-21T04:23:49.821Z,44.63
2022-09-21T04:28:56.578Z,45.25
2022-09-21T04:34:02.399Z,45.47
2022-09-21T04:39:08.574Z,44.77
2022-09-21T04:49:18.302Z,45.37
2022-09-21T04:54:23.195Z,45.50
2022-09-21T04:59:28.533Z,45.40
2022-09-21T05:04:33.355Z,45.37
2022-09-21T05:09:56.261Z,45.20
2022-09-21T05:15:02.426Z,45.60
2022-09-21T05:20:07.975Z,45.63
2022-09-21T05:25:13.249Z,45.57
2022-09-21T05:30:18.857Z,45.03
2022-09-21T05:35:39.365Z,46.33
2022-09-21T05:40:46.430Z,45.83
2022-09-21T05:46:03.845Z,45.83
2022-09-21T05:51:23.907Z,46.27
2022-09-21T05:56:44.303Z,46.73
2022-09-21T06:01:55.612Z,47.47
2022-09-21T06:07:01.319Z,46.83
2022-09-21T06:12:07.199Z,46.37
2022-09-21T06:17:13.164Z,46.55
2022-09-21T06:22:18.393Z,46.08
2022-09-21T06:27:23.287Z,47.03
2022-09-21T06:32:28.621Z,47.73
2022-09-21T06:37:34.296Z,47.07
2022-09-21T06:42:39.967Z,47.17
2022-09-21T06:47:49.806Z,46.63
2022-09-21T06:52:55.179Z,47.13
2022-09-21T06:58:05.384Z,46.80
2022-09-21T07:03:14.101Z,46.73
2022-09-21T07:13:28.598Z,46.80
2022-09-21T07:18:43.119Z,46.77
2022-09-21T07:23:42.908Z,46.40
2022-09-21T07:28:48.346Z,46.13
2022-09-21T07:33:56.699Z,45.50
2022-09-21T07:39:03.125Z,45.97
2022-09-21T07:44:07.984Z,45.90
2022-09-21T07:49:13.571Z,46.23
2022-09-21T07:54:18.520Z,45.87
2022-09-21T07:59:24.265Z,46.03
2022-09-21T08:04:30.214Z,46.15
2022-09-21T08:09:35.177Z,45.90
2022-09-21T08:14:40.604Z,45.97
2022-09-21T08:19:45.480Z,46.03
2022-09-21T08:24:50.366Z,46.83
2022-09-21T08:29:55.600Z,47.30
2022-09-21T08:35:00.526Z,46.33
2022-09-21T08:40:07.399Z,46.20
2022-09-21T08:45:18.453Z,47.73
2022-09-21T08:50:44.450Z,46.27
2022-09-21T08:55:49.824Z,46.60
2022-09-21T09:01:22.130Z,46.40
2022-09-21T09:06:45.760Z,46.47
2022-09-21T09:12:11.083Z,46.17
2022-09-21T09:17:21.668Z,46.37
2022-09-21T09:22:30.020Z,45.98
2022-09-21T09:27:44.309Z,46.15
2022-09-21T09:33:03.912Z,46.17
2022-09-21T09:38:31.683Z,46.53
2022-09-21T09:43:59.252Z,46.48
2022-09-21T09:49:10.245Z,46.30
2022-09-21T09:54:18.004Z,46.07
2022-09-21T09:59:35.897Z,46.27
2022-09-21T10:04:46.177Z,46.37
2022-09-21T10:09:51.090Z,46.50
2022-09-21T10:15:01.361Z,46.53
2022-09-21T10:20:08.497Z,46.77
2022-09-21T10:25:19.467Z,46.93
2022-09-21T10:30:39.046Z,47.27
2022-09-21T10:35:53.421Z,46.93
2022-09-21T10:40:58.979Z,46.77
2022-09-21T10:46:06.031Z,45.80
2022-09-21T10:51:14.417Z,46.43
2022-09-21T10:56:20.020Z,46.60
2022-09-21T11:01:28.349Z,46.20
2022-09-21T11:06:40.768Z,46.50
2022-09-21T11:11:51.414Z,45.43
2022-09-21T11:17:05.180Z,46.33
2022-09-21T11:22:32.503Z,45.97
2022-09-21T11:27:44.957Z,45.53
2022-09-21T11:33:18.983Z,46.43
2022-09-21T11:38:44.576Z,45.12
2022-09-21T11:44:06.240Z,45.67
2022-09-21T11:49:21.998Z,46.07
2022-09-21T11:54:53.657Z,46.00
2022-09-21T12:00:07.624Z,45.80
2022-09-21T12:05:22.932Z,45.65
2022-09-21T12:10:36.745Z,46.27
2022-09-21T12:16:10.250Z,45.50
2022-09-21T12:21:24.752Z,45.87
2022-09-21T12:26:41.913Z,46.02
2022-09-21T12:31:59.023Z,47.97
2022-09-21T12:37:22.254Z,46.27
2022-09-21T12:42:49.420Z,46.42
2022-09-21T12:48:00.839Z,47.90
2022-09-21T12:53:07.960Z,47.17
2022-09-21T12:58:34.583Z,46.43
2022-09-21T13:03:46.253Z,45.93
2022-09-21T13:08:52.145Z,46.03
2022-09-21T13:14:06.861Z,46.10
2022-09-21T13:19:27.025Z,46.33
2022-09-21T13:24:34.436Z,45.87
2022-09-21T13:29:41.948Z,46.17
2022-09-21T13:34:50.891Z,46.00
2022-09-21T13:40:10.851Z,47.13
2022-09-21T13:45:23.079Z,45.77
2022-09-21T13:50:32.914Z,46.07
2022-09-21T13:55:44.251Z,47.57
2022-09-21T14:00:59.120Z,46.67
2022-09-21T14:06:08.668Z,45.60
2022-09-21T14:11:27.119Z,45.83
2022-09-21T14:16:37.243Z,46.37
2022-09-21T14:22:03.214Z,46.73
2022-09-21T14:27:29.420Z,45.70
2022-09-21T14:32:43.845Z,45.43
2022-09-21T14:37:56.464Z,45.73
2022-09-21T14:43:06.251Z,45.67
2022-09-21T14:48:43.382Z,46.50
2022-09-21T14:59:08.012Z,46.10
2022-09-21T15:04:33.616Z,46.53
2022-09-21T15:10:25.176Z,58.50
2022-09-21T15:15:41.296Z,56.43
2022-09-21T15:20:49.516Z,46.58
2022-09-21T15:26:05.834Z,45.55
2022-09-21T15:31:11.996Z,45.90
2022-09-21T15:36:25.719Z,45.58
2022-09-21T15:41:49.439Z,45.57
2022-09-21T15:46:59.661Z,47.17
2022-09-21T15:52:09.431Z,46.97
2022-09-21T15:57:37.556Z,46.97
2022-09-21T16:02:43.684Z,47.40
2022-09-21T16:07:49.277Z,49.73
2022-09-21T16:13:30.533Z,45.53
2022-09-21T16:18:52.374Z,46.57
2022-09-21T16:24:01.222Z,46.73
2022-09-21T16:29:22.605Z,46.47
2022-09-21T16:34:36.468Z,46.43
2022-09-21T16:39:42.894Z,46.27
2022-09-21T16:44:49.967Z,46.00
2022-09-21T16:50:04.376Z,45.40
2022-09-21T16:55:12.316Z,45.07
2022-09-21T17:00:20.824Z,44.00
2022-09-21T17:05:27.640Z,45.35
2022-09-21T17:10:36.588Z,45.52
2022-09-21T17:15:45.283Z,44.73
2022-09-21T17:20:51.517Z,44.73
2022-09-21T17:25:57.588Z,44.18
2022-09-21T17:31:06.406Z,45.23
2022-09-21T17:36:16.389Z,45.37
2022-09-21T17:41:28.687Z,45.90
2022-09-21T17:46:39.812Z,45.66
2022-09-21T17:57:34.441Z,46.58
2022-09-21T18:02:40.111Z,48.90
2022-09-21T18:07:46.389Z,51.47
2022-09-21T18:13:03.396Z,58.73
2022-09-21T18:18:31.378Z,59.00
2022-09-21T18:29:42.326Z,57.58
2022-09-21T18:35:04.394Z,60.17
2022-09-21T18:40:27.337Z,60.43
2022-09-21T18:45:41.639Z,60.47
2022-09-21T18:51:05.424Z,53.17
2022-09-21T18:56:12.884Z,51.00
2022-09-21T19:01:24.323Z,50.07
2022-09-21T19:06:45.499Z,57.33
2022-09-21T19:12:10.628Z,56.00
2022-09-21T19:17:42.274Z,53.50
2022-09-21T19:23:02.300Z,51.17
2022-09-21T19:28:32.485Z,51.20
2022-09-21T19:33:50.044Z,54.70
2022-09-21T19:38:45.835Z,52.00
2022-09-21T19:43:54.533Z,60.23
2022-09-21T19:49:04.091Z,63.07
2022-09-21T19:54:36.215Z,67.47
2022-09-21T19:59:46.205Z,64.30
2022-09-21T20:05:02.070Z,59.73
2022-09-21T20:10:25.666Z,58.83
2022-09-21T20:15:34.695Z,61.87
2022-09-21T20:20:42.865Z,57.30
2022-09-21T20:25:57.114Z,53.60
2022-09-21T20:31:05.248Z,54.87
2022-09-21T20:36:12.069Z,59.20
2022-09-21T20:41:19.877Z,57.83
2022-09-21T20:46:25.064Z,58.38
2022-09-21T20:51:31.346Z,59.63
2022-09-21T20:56:37.337Z,59.35
2022-09-21T21:01:42.525Z,59.37
2022-09-21T21:06:49.142Z,58.03
2022-09-21T21:11:54.845Z,55.20
2022-09-21T21:17:00.193Z,55.67
2022-09-21T21:22:06.833Z,54.60
2022-09-21T21:27:20.911Z,57.10
2022-09-21T21:32:28.756Z,54.73
2022-09-21T21:37:34.010Z,56.90
2022-09-21T21:42:40.067Z,56.13
2022-09-21T21:47:45.498Z,55.53
2022-09-21T21:52:51.270Z,54.73
2022-09-21T21:57:57.754Z,54.27
2022-09-21T22:03:04.536Z,54.90
2022-09-21T22:08:12.054Z,55.33
2022-09-21T22:13:17.766Z,58.33
2022-09-21T22:18:23.277Z,56.20
2022-09-21T22:23:28.406Z,55.08
2022-09-21T22:28:34.642Z,54.20
2022-09-21T22:33:40.698Z,56.80
2022-09-21T22:38:46.822Z,54.87
2022-09-21T22:48:57.511Z,51.25
2022-09-21T22:54:03.202Z,55.37
2022-09-21T22:59:09.344Z,52.57
2022-09-21T23:04:15.407Z,52.45
2022-09-21T23:09:22.711Z,51.20
2022-09-21T23:14:28.580Z,50.65
2022-09-21T23:19:33.553Z,50.93
2022-09-21T23:24:38.388Z,52.20
2022-09-21T23:29:43.269Z,50.00
2022-09-21T23:34:48.719Z,49.13
2022-09-21T23:39:53.746Z,48.50
2022-09-21T23:44:59.058Z,51.07
2022-09-21T23:50:04.561Z,51.40
2022-09-21T23:55:10.789Z,51.10
